Time;durP1;ratioP1;P1;durP2;ratioP2;P2;SDS_P1;SDS_P2;PMS_P1;PMS_P2;Temp;Humidity;BMP_temperature;BMP_pressure;BME280_temperature;BME280_humidity;BME280_pressure;Samples;Min_cycle;Max_cycle;Signal;HPM_P1;HPM_P2
2021/05/04 00:01:20;;;;;;;7.37;2.22;;;;;;;24.51;41.66;101063.69;144994;640;5002;-82
2021/05/04 00:03:49;;;;;;;11.32;2.30;;;;;;;24.49;42.14;101060.19;144994;603;5002;-81
2021/05/04 00:06:20;;;;;;;9.63;2.30;;;;;;;24.45;42.19;101064.72;144994;576;5002;-79
2021/05/04 00:08:47;;;;;;;10.57;1.87;;;;;;;24.39;41.93;101058.69;144994;649;5002;-81
2021/05/04 00:11:13;;;;;;;7.18;2.10;;;;;;;24.39;42.01;101061.34;144994;564;5002;-82
2021/05/04 00:13:44;;;;;;;4.32;2.00;;;;;;;24.40;42.44;101063.94;144994;595;5002;-81
2021/05/04 00:16:12;;;;;;;10.38;2.03;;;;;;;24.40;41.70;101061.28;144994;636;5002;-81
2021/05/04 00:18:39;;;;;;;7.35;2.10;;;;;;;24.37;42.00;101061.38;144994;605;5002;-82
2021/05/04 00:21:08;;;;;;;8.30;2.10;;;;;;;24.36;41.82;101069.34;144994;588;5002;-80
2021/05/04 00:23:35;;;;;;;6.60;1.83;;;;;;;24.33;41.80;101066.78;144994;563;5002;-82
2021/05/04 00:26:02;;;;;;;7.12;2.08;;;;;;;24.27;41.88;101063.34;144994;627;5002;-80
2021/05/04 00:28:29;;;;;;;7.85;2.00;;;;;;;24.25;42.41;101066.94;144994;573;5002;-81
2021/05/04 00:30:55;;;;;;;9.35;2.85;;;;;;;24.18;42.38;101070.59;144994;623;5002;-81
2021/05/04 00:33:22;;;;;;;7.00;2.40;;;;;;;24.03;42.43;101071.81;144994;566;5002;-81
2021/05/04 00:35:49;;;;;;;9.13;2.15;;;;;;;23.96;42.79;101072.81;144994;589;5002;-81
2021/05/04 00:38:24;;;;;;;8.27;2.25;;;;;;;23.91;42.75;101070.28;144993;624;5002;-80
2021/05/04 00:40:53;;;;;;;11.50;2.42;;;;;;;23.94;42.85;101072.88;144994;601;5002;-80
2021/05/04 00:43:26;;;;;;;8.85;2.08;;;;;;;24.00;42.54;101083.34;144994;592;5002;-81
2021/05/04 00:45:53;;;;;;;7.70;2.30;;;;;;;24.05;42.95;101091.19;144994;575;5002;-80
2021/05/04 00:48:19;;;;;;;6.97;2.45;;;;;;;23.95;42.94;101085.22;144994;593;5002;-82
2021/05/04 00:50:47;;;;;;;8.25;2.10;;;;;;;23.85;43.08;101089.84;144994;608;5002;-82
2021/05/04 00:53:15;;;;;;;9.82;2.03;;;;;;;23.83;43.17;101091.66;144994;615;5002;-81
2021/05/04 00:55:42;;;;;;;6.70;1.90;;;;;;;23.73;42.39;101090.94;144994;586;5002;-80
2021/05/04 00:58:12;;;;;;;8.70;2.33;;;;;;;23.64;43.10;101092.84;144994;591;5002;-81
2021/05/04 01:00:39;;;;;;;5.30;1.65;;;;;;;23.66;42.77;101093.72;144994;566;5002;-81
2021/05/04 01:03:07;;;;;;;8.75;2.00;;;;;;;23.58;41.45;101090.34;144994;610;5002;-81
2021/05/04 01:05:34;;;;;;;6.85;1.83;;;;;;;23.46;42.54;101100.22;144994;607;5002;-81
2021/05/04 01:08:00;;;;;;;10.52;2.35;;;;;;;23.39;43.16;101100.38;144994;586;5002;-80
2021/05/04 01:10:27;;;;;;;10.50;2.20;;;;;;;23.21;43.50;101099.81;144994;577;5002;-81
2021/05/04 01:12:54;;;;;;;12.23;2.40;;;;;;;23.13;43.63;101097.28;144994;619;5002;-81
2021/05/04 01:15:20;;;;;;;8.60;2.28;;;;;;;23.11;44.15;101095.53;144993;585;5002;-80
2021/05/04 01:17:47;;;;;;;10.38;2.40;;;;;;;23.09;44.12;101084.97;144993;685;5002;-81
2021/05/04 01:20:14;;;;;;;8.73;2.30;;;;;;;23.09;43.67;101082.31;144994;576;5002;-80
2021/05/04 01:22:40;;;;;;;5.97;2.12;;;;;;;23.10;44.19;101086.72;144994;570;5002;-81
2021/05/04 01:25:08;;;;;;;5.65;2.03;;;;;;;23.08;44.17;101088.53;144994;650;5002;-81
2021/05/04 01:27:35;;;;;;;7.80;2.05;;;;;;;23.08;44.46;101085.91;144994;600;5002;-83
2021/05/04 01:30:02;;;;;;;7.30;2.00;;;;;;;23.15;44.61;101079.59;144994;571;5002;-81
2021/05/04 01:32:28;;;;;;;9.32;2.20;;;;;;;23.25;44.69;101075.00;144994;574;5002;-80
2021/05/04 01:34:55;;;;;;;9.98;2.62;;;;;;;23.33;44.26;101073.09;144994;599;5002;-80
2021/05/04 01:37:22;;;;;;;8.30;2.60;;;;;;;23.40;44.59;101071.22;144994;577;5002;-80
2021/05/04 01:39:50;;;;;;;11.95;2.40;;;;;;;23.47;44.09;101070.19;144994;561;5002;-80
2021/05/04 01:42:18;;;;;;;8.02;2.15;;;;;;;23.52;44.14;101063.03;144994;566;5002;-81
2021/05/04 01:44:45;;;;;;;10.43;2.10;;;;;;;23.57;44.35;101065.59;144994;608;5002;-80
2021/05/04 01:47:12;;;;;;;9.45;2.40;;;;;;;23.60;44.40;101056.72;144994;587;5002;-80
2021/05/04 01:49:40;;;;;;;11.52;2.45;;;;;;;23.59;44.68;101071.75;144994;566;5002;-80
2021/05/04 01:52:08;;;;;;;7.90;2.40;;;;;;;23.59;44.18;101065.56;144994;605;5002;-80
2021/05/04 01:54:34;;;;;;;10.73;2.25;;;;;;;23.59;44.53;101062.91;144994;593;5002;-80
2021/05/04 01:57:01;;;;;;;9.50;2.28;;;;;;;23.54;44.57;101060.34;144994;617;5002;-80
2021/05/04 01:59:29;;;;;;;10.13;2.55;;;;;;;23.49;44.27;101062.22;144994;577;5002;-81
2021/05/04 02:01:57;;;;;;;9.52;2.28;;;;;;;23.52;44.54;101062.16;144994;566;5002;-80
2021/05/04 02:04:24;;;;;;;10.20;1.98;;;;;;;23.57;44.12;101062.09;144994;565;5002;-80
2021/05/04 02:06:52;;;;;;;10.73;2.28;;;;;;;23.63;43.89;101070.78;144994;587;5002;-80
2021/05/04 02:09:18;;;;;;;8.20;1.90;;;;;;;23.66;43.60;101070.72;144994;616;5002;-80
2021/05/04 02:11:45;;;;;;;10.68;2.30;;;;;;;23.69;43.75;101069.81;144994;590;5002;-80
2021/05/04 02:14:12;;;;;;;12.60;2.10;;;;;;;23.70;43.45;101079.47;144994;578;5002;-80
2021/05/04 02:16:39;;;;;;;8.55;1.50;;;;;;;23.64;43.22;101077.84;144994;599;5002;-80
2021/05/04 02:19:06;;;;;;;9.13;1.60;;;;;;;23.61;43.17;101074.37;144994;587;5002;-79
2021/05/04 02:21:32;;;;;;;9.68;1.80;;;;;;;23.58;43.06;101083.25;144994;604;5002;-81
2021/05/04 02:24:03;;;;;;;7.80;1.85;;;;;;;23.54;43.41;101089.50;144994;564;5002;-79
2021/05/04 02:26:29;;;;;;;8.00;1.70;;;;;;;23.52;42.83;101078.91;144994;598;5002;-81
2021/05/04 02:28:56;;;;;;;7.07;1.73;;;;;;;23.52;43.04;101083.38;144994;569;5002;-79
2021/05/04 02:31:23;;;;;;;8.75;1.55;;;;;;;23.52;42.52;101078.06;144994;594;5002;-81
2021/05/04 02:33:49;;;;;;;7.53;1.83;;;;;;;23.53;42.94;101087.78;144994;618;5002;-80
2021/05/04 02:36:16;;;;;;;5.68;1.30;;;;;;;23.52;42.80;101089.53;144994;580;5002;-78
2021/05/04 02:38:42;;;;;;;6.18;1.83;;;;;;;23.51;42.46;101092.19;144994;627;5003;-80
2021/05/04 02:41:09;;;;;;;9.57;1.90;;;;;;;23.37;43.15;101103.06;144994;636;5002;-79
2021/05/04 02:43:36;;;;;;;8.20;1.87;;;;;;;23.31;43.29;101113.75;144994;573;5002;-81
2021/05/04 02:46:06;;;;;;;5.70;1.90;;;;;;;23.32;42.89;101115.47;144994;644;5002;-80
2021/05/04 02:48:49;;;;;;;10.90;2.15;;;;;;;23.33;43.00;101122.53;144994;622;5002;-81
2021/05/04 02:51:29;;;;;;;7.95;2.10;;;;;;;23.31;43.56;101125.22;144994;598;5002;-85
2021/05/04 02:53:57;;;;;;;10.80;2.22;;;;;;;23.33;43.29;101126.06;144994;565;4566;-80
2021/05/04 02:56:24;;;;;;;14.55;2.28;;;;;;;23.36;43.58;101131.31;144994;610;4572;-78
2021/05/04 02:58:51;;;;;;;8.38;2.62;;;;;;;23.32;43.15;101134.94;144994;590;4573;-80
2021/05/04 03:01:18;;;;;;;8.10;2.50;;;;;;;23.19;43.78;101130.72;144992;657;6002;-80
2021/05/04 03:03:47;;;;;;;8.88;2.03;;;;;;;23.08;43.80;101144.12;144992;586;6002;-80
2021/05/04 03:06:14;;;;;;;8.45;1.90;;;;;;;23.07;43.47;101152.94;144992;621;6002;-80
2021/05/04 03:08:40;;;;;;;10.57;2.17;;;;;;;23.08;43.52;101167.06;144992;601;6002;-80
2021/05/04 03:11:07;;;;;;;7.80;1.87;;;;;;;23.08;43.27;101167.06;144992;572;6002;-81
2021/05/04 03:13:34;;;;;;;8.63;2.10;;;;;;;23.06;44.25;101175.00;144991;573;6002;-79
2021/05/04 03:16:01;;;;;;;9.88;2.53;;;;;;;23.03;43.66;101179.47;144992;662;6002;-82
2021/05/04 03:18:28;;;;;;;8.77;1.80;;;;;;;22.99;44.51;101205.12;144992;663;6002;-79
2021/05/04 03:20:55;;;;;;;8.70;1.95;;;;;;;22.99;44.14;101211.28;144992;587;6002;-80
2021/05/04 03:23:22;;;;;;;8.18;2.15;;;;;;;23.04;44.05;101213.88;144992;638;6002;-80
2021/05/04 03:25:50;;;;;;;7.10;2.00;;;;;;;23.09;44.04;101224.44;144992;585;6002;-78
2021/05/04 03:28:17;;;;;;;8.13;1.75;;;;;;;23.13;44.17;101232.31;144992;677;6002;-79
2021/05/04 03:30:44;;;;;;;6.43;1.98;;;;;;;23.18;43.66;101240.19;144992;745;6002;-80
2021/05/04 03:33:12;;;;;;;10.52;2.28;;;;;;;23.22;43.64;101244.53;144992;585;6002;-81
2021/05/04 03:35:38;;;;;;;8.63;2.17;;;;;;;23.26;43.76;101248.91;144992;581;6002;-81
2021/05/04 03:38:05;;;;;;;9.77;2.08;;;;;;;23.29;43.21;101248.88;144992;596;6003;-79
2021/05/04 03:40:32;;;;;;;11.50;2.40;;;;;;;23.22;41.02;101252.47;144992;573;6002;-80
2021/05/04 03:43:03;;;;;;;7.87;2.25;;;;;;;23.10;43.31;101264.13;144992;573;6002;-80
2021/05/04 03:45:30;;;;;;;8.35;2.20;;;;;;;23.10;43.32;101269.44;144992;573;6003;-80
2021/05/04 03:47:57;;;;;;;8.75;2.12;;;;;;;23.00;43.05;101273.94;144992;627;6002;-79
2021/05/04 03:50:26;;;;;;;7.40;1.98;;;;;;;23.02;43.47;101271.28;144992;588;6002;-78
2021/05/04 03:52:57;;;;;;;9.57;2.17;;;;;;;23.05;43.51;101273.87;144992;596;6002;-78
2021/05/04 03:55:27;;;;;;;10.55;2.10;;;;;;;23.13;43.19;101276.44;144992;623;6002;-80
2021/05/04 03:57:57;;;;;;;7.93;2.45;;;;;;;23.18;43.58;101282.56;144992;671;6002;-81
2021/05/04 04:00:24;;;;;;;15.30;5.78;;;;;;;22.94;43.59;101276.66;144992;569;6002;-79
2021/05/04 04:02:52;;;;;;;9.25;3.35;;;;;;;23.00;43.47;101278.34;144992;639;6002;-79
2021/05/04 04:05:19;;;;;;;17.37;2.50;;;;;;;23.00;43.90;101281.88;144992;591;6002;-80
2021/05/04 04:07:46;;;;;;;10.45;2.47;;;;;;;23.01;43.38;101286.28;144992;571;6002;-80
2021/05/04 04:10:18;;;;;;;10.75;2.50;;;;;;;22.98;43.82;101296.91;144992;587;6002;-81
2021/05/04 04:12:44;;;;;;;6.75;2.20;;;;;;;23.00;43.45;101289.84;144991;659;6002;-80
2021/05/04 04:15:14;;;;;;;15.60;2.80;;;;;;;23.04;43.85;101295.97;144992;592;6002;-80
2021/05/04 04:17:41;;;;;;;6.43;1.77;;;;;;;23.05;43.58;101300.38;144992;613;6002;-80
2021/05/04 04:20:08;;;;;;;7.50;2.03;;;;;;;23.06;43.48;101304.75;144992;650;6002;-81
2021/05/04 04:22:36;;;;;;;13.35;2.55;;;;;;;23.05;43.45;101292.44;144992;569;6002;-80
2021/05/04 04:25:07;;;;;;;8.60;2.20;;;;;;;23.06;43.81;101302.09;144992;577;6002;-80
2021/05/04 04:27:34;;;;;;;8.40;2.17;;;;;;;22.80;44.36;101316.53;144992;619;6002;-80
2021/05/04 04:30:00;;;;;;;8.55;2.30;;;;;;;22.79;44.27;101309.47;144992;609;6002;-81
2021/05/04 04:32:26;;;;;;;7.82;2.22;;;;;;;22.83;44.43;101318.28;144992;581;6002;-80
2021/05/04 04:34:53;;;;;;;8.80;1.62;;;;;;;22.86;43.99;101299.72;144992;591;6002;-80
2021/05/04 04:37:21;;;;;;;9.68;2.47;;;;;;;22.90;44.28;101303.19;144992;594;6002;-80
2021/05/04 04:39:48;;;;;;;8.77;1.70;;;;;;;22.93;44.31;101293.44;144992;586;6002;-82
2021/05/04 04:42:14;;;;;;;9.45;1.70;;;;;;;22.97;44.20;101296.91;144992;670;6002;-79
2021/05/04 04:44:41;;;;;;;5.53;1.62;;;;;;;23.02;44.30;101292.47;144991;614;6002;-79
2021/05/04 04:47:07;;;;;;;8.48;1.70;;;;;;;23.10;44.20;101300.34;144992;589;6002;-81
2021/05/04 04:49:34;;;;;;;8.48;1.75;;;;;;;23.18;43.65;101291.37;144992;624;6002;-81
2021/05/04 04:52:01;;;;;;;6.45;1.77;;;;;;;23.13;42.67;101295.88;144991;565;6002;-81
2021/05/04 04:54:27;;;;;;;7.75;2.10;;;;;;;22.85;43.78;101289.16;144992;564;6002;-80
2021/05/04 04:56:53;;;;;;;11.02;2.90;;;;;;;22.88;44.54;101300.56;144991;586;6002;-81
2021/05/04 04:59:20;;;;;;;10.07;2.10;;;;;;;22.97;44.45;101300.47;144992;654;6002;-80
2021/05/04 05:01:46;;;;;;;8.98;2.20;;;;;;;23.06;44.08;101299.44;144992;564;6002;-80
2021/05/04 05:04:13;;;;;;;8.18;1.90;;;;;;;23.15;44.31;101309.09;144992;639;6002;-81
2021/05/04 05:06:40;;;;;;;8.88;2.10;;;;;;;23.13;43.76;101310.88;144992;569;6002;-79
2021/05/04 05:09:08;;;;;;;7.90;2.10;;;;;;;22.95;44.65;101307.53;144992;610;6002;-80
2021/05/04 05:11:35;;;;;;;8.48;2.10;;;;;;;23.04;44.31;101295.97;144992;642;6002;-80
2021/05/04 05:14:07;;;;;;;7.60;2.20;;;;;;;23.14;43.74;101296.75;144992;589;6002;-80
2021/05/04 05:16:34;;;;;;;9.70;2.08;;;;;;;23.10;43.90;101290.63;144992;565;6002;-80
2021/05/04 05:19:04;;;;;;;8.90;2.33;;;;;;;23.09;43.60;101280.91;144992;659;6002;-80
2021/05/04 05:21:32;;;;;;;8.43;1.98;;;;;;;23.14;43.69;101284.37;144992;652;6002;-81
2021/05/04 05:24:00;;;;;;;9.35;2.10;;;;;;;23.20;43.63;101290.50;144992;585;6002;-79
2021/05/04 05:26:28;;;;;;;11.80;2.37;;;;;;;23.28;43.57;101294.78;144992;573;6002;-79
2021/05/04 05:28:58;;;;;;;11.35;2.42;;;;;;;23.36;43.38;101298.19;144992;656;6002;-79
2021/05/04 05:31:28;;;;;;;15.70;3.10;;;;;;;23.42;43.72;101299.88;144992;601;6002;-81
2021/05/04 05:33:55;;;;;;;11.50;2.30;;;;;;;23.48;43.32;101310.41;144992;583;6002;-80
2021/05/04 05:36:21;;;;;;;11.73;2.25;;;;;;;23.42;43.80;101320.22;144992;639;6002;-80
2021/05/04 05:38:48;;;;;;;10.65;2.00;;;;;;;23.21;43.44;101326.66;144992;564;6002;-80
2021/05/04 05:41:15;;;;;;;10.82;1.90;;;;;;;23.26;43.43;101340.75;144992;592;6002;-79
2021/05/04 05:43:41;;;;;;;7.40;2.03;;;;;;;23.33;43.34;101342.41;144992;577;6002;-79
2021/05/04 05:46:08;;;;;;;13.27;2.08;;;;;;;23.46;43.27;101356.34;144992;589;6002;-80
2021/05/04 05:48:34;;;;;;;9.55;1.70;;;;;;;23.51;43.25;101366.00;144992;579;6002;-79
2021/05/04 05:51:00;;;;;;;11.93;2.20;;;;;;;23.55;43.42;101359.75;144992;574;6002;-79
2021/05/04 05:53:28;;;;;;;9.52;3.25;;;;;;;23.52;43.39;101359.78;144992;592;6002;-83
2021/05/04 05:56:01;;;;;;;7.53;2.30;;;;;;;23.58;43.27;101360.62;144992;618;6002;-79
2021/05/04 05:58:30;;;;;;;7.12;2.10;;;;;;;23.63;43.67;101367.59;144992;612;6002;-80
2021/05/04 06:00:57;;;;;;;10.05;2.25;;;;;;;23.69;43.20;101374.59;144992;575;6002;-80
2021/05/04 06:03:24;;;;;;;10.82;2.12;;;;;;;23.60;43.31;101380.00;144992;618;6002;-81
2021/05/04 06:05:51;;;;;;;9.25;2.22;;;;;;;23.45;43.06;101389.03;144992;578;6002;-80
2021/05/04 06:08:18;;;;;;;8.43;1.75;;;;;;;23.36;43.17;101384.75;144992;594;6002;-79
2021/05/04 06:10:46;;;;;;;14.43;2.33;;;;;;;23.31;43.38;101394.53;144992;627;6002;-80
2021/05/04 06:13:13;;;;;;;6.78;2.05;;;;;;;23.18;42.41;101405.25;144992;586;6002;-80
2021/05/04 06:15:46;;;;;;;10.63;2.20;;;;;;;23.23;43.17;101412.28;144992;614;6002;-79
2021/05/04 06:18:20;;;;;;;9.20;1.95;;;;;;;23.38;42.74;101419.16;144992;585;6002;-80
2021/05/04 06:20:48;;;;;;;5.97;1.40;;;;;;;23.43;41.47;101430.56;144992;579;6002;-79
2021/05/04 06:23:15;;;;;;;5.53;1.30;;;;;;;23.54;42.28;101434.84;144992;565;6002;-79
2021/05/04 06:25:41;;;;;;;7.05;1.23;;;;;;;23.70;42.29;101434.63;144992;573;6002;-80
2021/05/04 06:28:09;;;;;;;7.93;1.65;;;;;;;23.84;41.68;101432.69;144992;613;6002;-79
2021/05/04 06:30:36;;;;;;;3.87;1.30;;;;;;;23.78;42.13;101429.22;144992;570;6002;-80
2021/05/04 06:33:10;;;;;;;6.40;1.23;;;;;;;23.82;41.59;101431.81;144992;581;6002;-81
2021/05/04 06:35:40;;;;;;;6.45;1.60;;;;;;;23.89;41.64;101433.53;144992;590;6002;-80
2021/05/04 06:38:08;;;;;;;4.28;1.50;;;;;;;24.04;41.36;101431.56;144992;569;6002;-80
2021/05/04 06:40:34;;;;;;;4.87;1.37;;;;;;;24.04;40.96;101429.78;144992;633;6002;-79
2021/05/04 06:43:02;;;;;;;7.60;1.80;;;;;;;24.13;41.99;101426.09;144992;600;6002;-79
2021/05/04 06:45:29;;;;;;;6.00;1.33;;;;;;;24.24;41.64;101426.81;144992;566;6002;-78
2021/05/04 06:47:56;;;;;;;6.60;1.40;;;;;;;24.41;41.85;101417.69;144992;580;6002;-81
2021/05/04 06:50:22;;;;;;;5.65;1.30;;;;;;;24.54;41.82;101426.34;144992;607;6002;-79
2021/05/04 06:52:48;;;;;;;11.38;1.90;;;;;;;24.63;41.36;101421.75;144992;566;6002;-80
2021/05/04 06:55:15;;;;;;;6.82;1.75;;;;;;;24.76;41.71;101418.91;144991;597;6002;-82
2021/05/04 06:57:42;;;;;;;6.50;1.50;;;;;;;24.89;41.62;101416.87;144992;596;6002;-80
2021/05/04 07:00:09;;;;;;;6.12;1.70;;;;;;;25.02;41.10;101412.22;144992;582;6002;-80
2021/05/04 07:02:36;;;;;;;6.15;1.70;;;;;;;25.02;39.24;101405.12;144992;577;6002;-81
2021/05/04 07:05:04;;;;;;;5.68;1.77;;;;;;;25.03;41.60;101392.72;144992;598;6002;-80
2021/05/04 07:07:31;;;;;;;8.60;2.05;;;;;;;25.19;41.74;101402.13;144992;573;6002;-80
2021/05/04 07:09:58;;;;;;;14.70;1.90;;;;;;;25.34;41.41;101406.28;144992;657;6002;-79
2021/05/04 07:12:25;;;;;;;4.95;1.40;;;;;;;25.42;40.81;101409.69;144992;657;6002;-80
2021/05/04 07:14:52;;;;;;;7.50;2.15;;;;;;;25.46;40.28;101403.37;144992;564;6002;-79
2021/05/04 07:17:18;;;;;;;6.93;1.65;;;;;;;24.93;38.41;101411.50;144992;613;6002;-79
2021/05/04 07:19:46;;;;;;;6.90;1.70;;;;;;;24.87;40.32;101416.91;144992;597;6002;-90
2021/05/04 07:22:12;;;;;;;7.03;1.65;;;;;;;24.80;40.01;101420.56;144992;592;6002;-80
2021/05/04 07:24:42;;;;;;;6.43;1.48;;;;;;;24.61;40.60;101418.28;144992;596;6002;-78
2021/05/04 07:27:09;;;;;;;5.12;1.50;;;;;;;24.54;41.46;101415.72;144992;642;6002;-79
2021/05/04 07:29:36;;;;;;;9.70;1.62;;;;;;;24.65;41.74;101415.56;144992;644;6002;-80
2021/05/04 07:32:03;;;;;;;9.63;2.08;;;;;;;24.72;40.94;101417.19;144992;606;6002;-77
2021/05/04 07:34:30;;;;;;;4.62;1.25;;;;;;;24.72;41.53;101422.50;144992;566;6002;-79
2021/05/04 07:36:57;;;;;;;6.55;1.33;;;;;;;24.64;42.05;101422.63;144992;670;6002;-78
2021/05/04 07:39:24;;;;;;;9.52;1.70;;;;;;;24.71;40.55;101423.44;144992;606;6002;-80
2021/05/04 07:41:51;;;;;;;6.37;1.80;;;;;;;24.81;41.33;101422.34;144992;563;6002;-80
2021/05/04 07:44:19;;;;;;;12.88;1.87;;;;;;;24.89;41.17;101414.22;144992;592;6002;-79
2021/05/04 07:46:45;;;;;;;9.15;1.80;;;;;;;25.06;41.42;101420.09;144992;588;6002;-79
2021/05/04 07:49:18;;;;;;;7.30;1.60;;;;;;;25.33;41.14;101421.34;144992;585;6002;-79
2021/05/04 07:51:44;;;;;;;8.43;1.60;;;;;;;25.26;40.37;101425.03;144992;661;6003;-80
2021/05/04 07:54:12;;;;;;;9.00;1.60;;;;;;;25.24;40.38;101425.94;144992;582;6002;-79
2021/05/04 07:56:39;;;;;;;9.32;1.80;;;;;;;25.21;39.93;101424.22;144992;606;6002;-80
2021/05/04 07:59:06;;;;;;;6.57;1.80;;;;;;;24.89;40.74;101435.47;144992;576;6003;-80
2021/05/04 08:01:33;;;;;;;6.87;1.90;;;;;;;24.85;41.38;101416.06;144992;581;6002;-80
2021/05/04 08:03:59;;;;;;;7.37;1.50;;;;;;;24.88;40.76;101410.72;144992;575;6002;-79
2021/05/04 08:06:26;;;;;;;8.70;1.92;;;;;;;24.91;40.67;101408.00;144992;587;6002;-80
2021/05/04 08:08:52;;;;;;;8.23;2.42;;;;;;;24.75;41.12;101401.22;144992;634;6002;-81
2021/05/04 08:11:18;;;;;;;7.85;2.60;;;;;;;24.80;41.78;101400.22;144992;564;6011;-81
2021/05/04 08:13:45;;;;;;;9.80;1.85;;;;;;;24.81;41.24;101403.75;144992;627;6002;-82
2021/05/04 08:16:13;;;;;;;8.95;1.85;;;;;;;24.50;42.18;101404.28;144992;567;6002;-80
2021/05/04 08:18:42;;;;;;;7.82;2.53;;;;;;;24.28;42.43;101422.34;144992;590;6002;-80
2021/05/04 08:21:10;;;;;;;7.47;2.12;;;;;;;24.46;42.50;101415.84;144992;577;6002;-81
2021/05/04 08:23:36;;;;;;;6.93;2.08;;;;;;;24.49;42.42;101412.28;144992;573;6002;-80
2021/05/04 08:26:04;;;;;;;10.90;2.30;;;;;;;24.62;41.99;101406.75;144992;600;6010;-80
2021/05/04 08:28:32;;;;;;;13.52;2.50;;;;;;;24.42;42.54;101400.88;144992;621;6002;-82
2021/05/04 08:30:59;;;;;;;8.40;2.12;;;;;;;24.36;43.39;101411.59;144992;611;6002;-80
2021/05/04 08:33:25;;;;;;;9.13;2.37;;;;;;;24.56;43.09;101422.78;144992;643;6002;-81
2021/05/04 08:35:52;;;;;;;10.68;1.85;;;;;;;24.72;43.91;101419.84;144992;612;6002;-80
2021/05/04 08:38:18;;;;;;;5.97;1.65;;;;;;;24.81;43.97;101407.28;144992;583;6002;-78
2021/05/04 08:40:45;;;;;;;8.60;2.05;;;;;;;24.49;45.87;101410.47;144992;639;6002;-81
2021/05/04 08:43:11;;;;;;;8.13;2.37;;;;;;;24.28;47.90;101401.12;144992;566;6003;-79
2021/05/04 08:45:40;;;;;;;8.90;2.30;;;;;;;24.38;47.29;101401.84;144992;617;6002;-78
2021/05/04 08:48:07;;;;;;;8.00;2.12;;;;;;;24.42;46.37;101399.09;144992;570;6002;-79
2021/05/04 08:50:38;;;;;;;8.05;1.95;;;;;;;24.50;46.11;101392.78;144992;593;6003;-80
2021/05/04 08:53:05;;;;;;;11.65;2.28;;;;;;;24.45;44.97;101384.91;144992;569;6002;-77
2021/05/04 08:55:31;;;;;;;10.77;2.40;;;;;;;24.58;47.81;101399.75;144992;638;6002;-79
2021/05/04 08:57:58;;;;;;;10.90;2.80;;;;;;;24.30;51.03;101409.03;144992;565;6002;-81
2021/05/04 09:00:26;;;;;;;8.02;1.98;;;;;;;23.89;49.77;101408.78;144992;589;6002;-81
2021/05/04 09:03:22;;;;;;;8.68;2.30;;;;;;;23.93;49.48;101414.94;144992;603;6002;-81
2021/05/04 09:09:21;;;;;;;8.50;1.95;;;;;;;24.13;48.24;101434.03;144992;617;6004;-83
2021/05/04 09:12:07;;;;;;;7.30;2.05;;;;;;;23.84;49.51;101451.25;144992;628;6004;-79
2021/05/04 09:14:46;;;;;;;8.20;2.72;;;;;;;23.71;50.19;101457.59;144993;658;6000;-79
2021/05/04 09:17:25;;;;;;;11.02;2.40;;;;;;;23.85;49.29;101455.69;144993;584;6002;-79
2021/05/04 09:23:08;;;;;;;7.12;2.17;;;;;;;24.21;47.34;101425.97;144993;599;6004;-81
2021/05/04 09:25:37;;;;;;;8.82;2.05;;;;;;;24.22;45.94;101420.66;144993;577;6002;-78
2021/05/04 09:28:13;;;;;;;9.75;1.87;;;;;;;24.37;46.00;101416.87;144993;655;6003;-76
2021/05/04 09:30:50;;;;;;;8.10;2.08;;;;;;;24.35;44.25;101412.50;144993;599;6002;-79
2021/05/04 09:33:17;;;;;;;8.57;2.50;;;;;;;24.40;44.51;101408.88;144993;566;6002;-80
2021/05/04 09:35:44;;;;;;;7.60;2.10;;;;;;;24.45;43.68;101403.50;144993;618;6003;-79
2021/05/04 09:38:17;;;;;;;7.00;2.42;;;;;;;24.68;43.18;101397.78;144993;564;6002;-84
2021/05/04 09:40:45;;;;;;;6.35;1.65;;;;;;;24.70;42.86;101403.94;144993;568;6002;-81
2021/05/04 09:43:14;;;;;;;8.88;1.92;;;;;;;24.73;42.28;101397.72;144993;580;6002;-78
2021/05/04 09:45:53;;;;;;;6.40;2.20;;;;;;;24.65;42.40;101407.59;144992;620;6002;-80
2021/05/04 09:48:42;;;;;;;6.22;1.90;;;;;;;24.51;43.42;101403.34;144992;615;6002;-81
2021/05/04 09:51:17;;;;;;;7.72;1.73;;;;;;;24.48;43.22;101398.09;144992;584;6000;-79
2021/05/04 09:54:00;;;;;;;8.43;1.92;;;;;;;24.52;42.28;101389.19;144992;594;6000;-80
2021/05/04 09:56:35;;;;;;;7.47;1.90;;;;;;;24.49;42.68;101386.59;144992;573;6000;-80
2021/05/04 09:59:03;;;;;;;7.12;2.12;;;;;;;24.57;42.59;101370.56;144992;581;6000;-80
2021/05/04 10:01:31;;;;;;;6.65;1.98;;;;;;;24.68;41.22;101359.75;144993;595;6000;-81
2021/05/04 10:03:58;;;;;;;6.22;1.60;;;;;;;24.76;40.90;101363.16;144993;569;6002;-79
2021/05/04 10:06:25;;;;;;;8.48;1.70;;;;;;;24.66;41.38;101370.41;144993;632;6002;-78
2021/05/04 10:08:52;;;;;;;5.40;2.17;;;;;;;24.88;40.50;101368.22;144993;598;6002;-78
2021/05/04 10:11:20;;;;;;;7.60;2.08;;;;;;;24.85;40.90;101370.03;144993;590;6002;-80
2021/05/04 10:13:52;;;;;;;6.32;2.00;;;;;;;24.81;41.03;101371.88;144993;569;6002;-80
2021/05/04 10:16:29;;;;;;;5.60;1.80;;;;;;;24.83;41.39;101377.19;144993;648;6002;-81
2021/05/04 10:19:01;;;;;;;8.30;1.92;;;;;;;24.79;40.18;101379.03;144993;569;6002;-79
2021/05/04 10:21:29;;;;;;;8.13;1.83;;;;;;;24.69;40.08;101380.97;144993;614;6002;-79
2021/05/04 10:23:58;;;;;;;5.25;1.95;;;;;;;24.69;40.69;101382.72;144993;573;6002;-80
2021/05/04 10:26:30;;;;;;;9.13;2.30;;;;;;;24.68;40.94;101378.34;144993;590;6002;-79
2021/05/04 10:29:00;;;;;;;4.68;1.75;;;;;;;24.74;40.67;101378.25;144993;608;6002;-81
2021/05/04 10:31:35;;;;;;;5.70;2.30;;;;;;;24.71;41.20;101378.28;144993;581;6002;-80
2021/05/04 10:34:33;;;;;;;7.37;2.10;;;;;;;24.61;40.25;101362.53;144997;610;6002;-80
2021/05/04 10:37:37;;;;;;;7.15;2.60;;;;;;;24.57;40.86;101362.63;144993;573;6004;-79
2021/05/04 10:40:21;;;;;;;7.85;2.90;;;;;;;24.41;41.27;101356.69;144993;576;6002;-80
2021/05/04 10:42:48;;;;;;;8.82;2.30;;;;;;;24.37;41.08;101366.47;144992;658;6002;-79
2021/05/04 10:45:15;;;;;;;8.23;2.20;;;;;;;24.43;41.89;101371.69;144993;587;6002;-80
2021/05/04 10:47:47;;;;;;;6.78;2.47;;;;;;;24.48;41.26;101371.56;144993;585;6002;-80
2021/05/04 10:50:26;;;;;;;6.55;2.47;;;;;;;24.51;42.09;101370.66;144993;569;6002;-80
2021/05/04 10:52:59;;;;;;;6.45;2.97;;;;;;;24.51;41.58;101373.31;144994;610;5002;-79
2021/05/04 10:55:44;;;;;;;6.50;3.00;;;;;;;24.55;41.02;101367.91;144994;621;5002;-80
2021/05/04 10:58:14;;;;;;;6.75;2.30;;;;;;;24.58;39.97;101362.59;144994;620;5004;-81
2021/05/04 11:01:06;;;;;;;14.27;2.40;;;;;;;24.59;40.16;101363.44;144994;593;5004;-77
2021/05/04 11:03:59;;;;;;;8.00;2.37;;;;;;;24.69;40.28;101366.81;144994;567;5004;-79
2021/05/04 11:06:46;;;;;;;7.82;1.90;;;;;;;24.76;39.89;101355.19;144994;573;5002;-80
2021/05/04 11:09:14;;;;;;;7.30;2.20;;;;;;;25.02;39.41;101345.81;144994;653;5004;-79
2021/05/04 11:11:43;;;;;;;7.87;2.95;;;;;;;25.06;39.53;101342.22;144994;572;5005;-81
2021/05/04 11:14:31;;;;;;;7.50;1.67;;;;;;;25.19;38.23;101342.81;144994;573;5004;-78
2021/05/04 11:17:05;;;;;;;7.75;2.03;;;;;;;25.11;38.01;101341.19;144994;644;5002;-80
2021/05/04 11:19:34;;;;;;;7.65;1.90;;;;;;;24.99;38.39;101337.00;144994;629;5002;-80
2021/05/04 11:22:23;;;;;;;7.12;1.73;;;;;;;25.00;38.16;101337.88;144994;636;5002;-79
2021/05/04 11:24:54;;;;;;;6.62;1.95;;;;;;;24.99;37.38;101338.78;144994;622;5004;-79
2021/05/04 11:27:23;;;;;;;6.60;2.00;;;;;;;24.99;37.89;101339.66;144994;584;5005;-81
2021/05/04 11:29:52;;;;;;;6.75;1.90;;;;;;;25.03;37.59;101337.81;144994;587;5004;-80
2021/05/04 11:32:29;;;;;;;5.93;1.98;;;;;;;25.07;37.71;101342.19;144994;644;5004;-79
2021/05/04 11:35:00;;;;;;;5.68;1.50;;;;;;;25.10;37.88;101350.09;144994;575;5005;-81
2021/05/04 11:37:49;;;;;;;4.25;1.90;;;;;;;25.11;37.77;101354.47;144994;587;5004;-79
2021/05/04 11:40:24;;;;;;;12.00;2.30;;;;;;;24.98;38.50;101343.22;144994;573;5002;-78
2021/05/04 11:43:14;;;;;;;6.57;2.08;;;;;;;24.95;38.22;101361.00;144994;576;5002;-82
2021/05/04 11:45:40;;;;;;;9.38;2.42;;;;;;;24.74;38.02;101346.38;144994;573;5004;-81
2021/05/04 11:48:08;;;;;;;5.07;1.95;;;;;;;24.81;38.53;101358.63;144993;650;5004;-80